sensor_id;sensor_type;location;lat;lon;timestamp;P1;durP1;ratioP1;P2;durP2;ratioP2
56181;SDS011;51963;46.052;14.544;2023-07-20T00:01:50;10.55;;;5.00;;
56181;SDS011;51963;46.052;14.544;2023-07-20T00:04:15;10.82;;;5.60;;
56181;SDS011;51963;46.052;14.544;2023-07-20T00:09:09;8.88;;;5.57;;
56181;SDS011;51963;46.052;14.544;2023-07-20T00:11:37;9.90;;;5.85;;
56181;SDS011;51963;46.052;14.544;2023-07-20T00:14:04;10.07;;;6.43;;
56181;SDS011;51963;46.052;14.544;2023-07-20T00:16:31;10.82;;;6.22;;
56181;SDS011;51963;46.052;14.544;2023-07-20T00:18:59;8.55;;;5.50;;
56181;SDS011;51963;46.052;14.544;2023-07-20T00:21:25;7.68;;;4.60;;
56181;SDS011;51963;46.052;14.544;2023-07-20T00:23:51;12.65;;;5.70;;
56181;SDS011;51963;46.052;14.544;2023-07-20T00:26:17;11.70;;;6.32;;
56181;SDS011;51963;46.052;14.544;2023-07-20T00:28:43;10.73;;;5.47;;
56181;SDS011;51963;46.052;14.544;2023-07-20T00:31:11;11.50;;;5.60;;
56181;SDS011;51963;46.052;14.544;2023-07-20T00:33:37;14.18;;;5.78;;
56181;SDS011;51963;46.052;14.544;2023-07-20T00:36:06;9.32;;;5.32;;
56181;SDS011;51963;46.052;14.544;2023-07-20T00:38:32;8.73;;;4.50;;
56181;SDS011;51963;46.052;14.544;2023-07-20T00:40:58;9.85;;;5.55;;
56181;SDS011;51963;46.052;14.544;2023-07-20T00:43:24;9.05;;;4.68;;
56181;SDS011;51963;46.052;14.544;2023-07-20T00:45:49;9.27;;;5.22;;
56181;SDS011;51963;46.052;14.544;2023-07-20T00:48:17;8.27;;;5.35;;
56181;SDS011;51963;46.052;14.544;2023-07-20T00:50:43;11.25;;;5.03;;
56181;SDS011;51963;46.052;14.544;2023-07-20T00:53:16;9.30;;;4.50;;
56181;SDS011;51963;46.052;14.544;2023-07-20T00:55:44;8.93;;;4.28;;
56181;SDS011;51963;46.052;14.544;2023-07-20T00:58:10;10.20;;;4.50;;
56181;SDS011;51963;46.052;14.544;2023-07-20T01:00:36;9.05;;;5.00;;
56181;SDS011;51963;46.052;14.544;2023-07-20T01:03:02;7.43;;;4.50;;
56181;SDS011;51963;46.052;14.544;2023-07-20T01:14:03;6.95;;;4.40;;
56181;SDS011;51963;46.052;14.544;2023-07-20T01:16:30;9.30;;;4.85;;
56181;SDS011;51963;46.052;14.544;2023-07-20T01:18:56;7.32;;;4.60;;
56181;SDS011;51963;46.052;14.544;2023-07-20T01:21:50;10.65;;;5.18;;
56181;SDS011;51963;46.052;14.544;2023-07-20T01:24:23;7.97;;;4.22;;
56181;SDS011;51963;46.052;14.544;2023-07-20T01:30:03;10.30;;;4.35;;
56181;SDS011;51963;46.052;14.544;2023-07-20T01:32:35;8.50;;;3.97;;
56181;SDS011;51963;46.052;14.544;2023-07-20T01:35:05;7.47;;;4.10;;
56181;SDS011;51963;46.052;14.544;2023-07-20T01:40:03;6.88;;;4.43;;
56181;SDS011;51963;46.052;14.544;2023-07-20T01:42:29;8.68;;;4.75;;
56181;SDS011;51963;46.052;14.544;2023-07-20T01:44:55;7.45;;;4.45;;
56181;SDS011;51963;46.052;14.544;2023-07-20T01:47:23;6.82;;;4.15;;
56181;SDS011;51963;46.052;14.544;2023-07-20T01:49:49;7.95;;;4.13;;
56181;SDS011;51963;46.052;14.544;2023-07-20T01:52:14;6.90;;;4.10;;
56181;SDS011;51963;46.052;14.544;2023-07-20T01:54:40;8.82;;;5.00;;
56181;SDS011;51963;46.052;14.544;2023-07-20T01:57:06;6.13;;;4.13;;
56181;SDS011;51963;46.052;14.544;2023-07-20T01:59:32;6.10;;;5.03;;
56181;SDS011;51963;46.052;14.544;2023-07-20T02:01:57;8.63;;;5.00;;
56181;SDS011;51963;46.052;14.544;2023-07-20T02:04:25;8.00;;;5.00;;
56181;SDS011;51963;46.052;14.544;2023-07-20T02:06:53;9.85;;;4.80;;
56181;SDS011;51963;46.052;14.544;2023-07-20T02:09:22;9.52;;;5.45;;
56181;SDS011;51963;46.052;14.544;2023-07-20T02:11:48;8.57;;;5.32;;
56181;SDS011;51963;46.052;14.544;2023-07-20T02:14:19;8.07;;;4.75;;
56181;SDS011;51963;46.052;14.544;2023-07-20T02:16:48;10.23;;;5.60;;
56181;SDS011;51963;46.052;14.544;2023-07-20T02:19:19;8.32;;;5.88;;
56181;SDS011;51963;46.052;14.544;2023-07-20T02:21:45;8.80;;;5.18;;
56181;SDS011;51963;46.052;14.544;2023-07-20T02:26:44;16.52;;;6.40;;
56181;SDS011;51963;46.052;14.544;2023-07-20T02:29:09;12.80;;;6.18;;
56181;SDS011;51963;46.052;14.544;2023-07-20T02:31:40;17.65;;;8.32;;
56181;SDS011;51963;46.052;14.544;2023-07-20T02:34:09;13.48;;;6.85;;
56181;SDS011;51963;46.052;14.544;2023-07-20T02:36:39;9.93;;;6.13;;
56181;SDS011;51963;46.052;14.544;2023-07-20T02:41:33;10.57;;;6.10;;
56181;SDS011;51963;46.052;14.544;2023-07-20T02:43:59;8.98;;;5.75;;
56181;SDS011;51963;46.052;14.544;2023-07-20T02:46:25;14.20;;;6.32;;
56181;SDS011;51963;46.052;14.544;2023-07-20T02:48:51;11.38;;;7.07;;
56181;SDS011;51963;46.052;14.544;2023-07-20T02:51:17;11.77;;;7.10;;
56181;SDS011;51963;46.052;14.544;2023-07-20T02:53:42;12.57;;;7.28;;
56181;SDS011;51963;46.052;14.544;2023-07-20T02:56:11;11.40;;;6.65;;
56181;SDS011;51963;46.052;14.544;2023-07-20T02:58:39;9.07;;;6.47;;
56181;SDS011;51963;46.052;14.544;2023-07-20T03:01:13;9.50;;;6.15;;
56181;SDS011;51963;46.052;14.544;2023-07-20T03:03:42;10.77;;;6.63;;
56181;SDS011;51963;46.052;14.544;2023-07-20T03:06:15;10.52;;;6.22;;
56181;SDS011;51963;46.052;14.544;2023-07-20T03:08:42;12.25;;;6.68;;
56181;SDS011;51963;46.052;14.544;2023-07-20T03:11:13;13.40;;;6.55;;
56181;SDS011;51963;46.052;14.544;2023-07-20T03:16:14;9.30;;;6.03;;
56181;SDS011;51963;46.052;14.544;2023-07-20T03:18:47;9.18;;;5.70;;
56181;SDS011;51963;46.052;14.544;2023-07-20T03:21:15;10.98;;;6.28;;
56181;SDS011;51963;46.052;14.544;2023-07-20T03:23:41;10.73;;;6.07;;
56181;SDS011;51963;46.052;14.544;2023-07-20T03:26:07;12.30;;;6.45;;
56181;SDS011;51963;46.052;14.544;2023-07-20T03:28:34;9.25;;;6.15;;
56181;SDS011;51963;46.052;14.544;2023-07-20T03:31:03;11.00;;;6.03;;
56181;SDS011;51963;46.052;14.544;2023-07-20T03:33:36;10.60;;;5.57;;
56181;SDS011;51963;46.052;14.544;2023-07-20T03:36:04;10.10;;;6.35;;
56181;SDS011;51963;46.052;14.544;2023-07-20T03:38:35;11.18;;;6.50;;
56181;SDS011;51963;46.052;14.544;2023-07-20T03:41:00;12.25;;;5.53;;
56181;SDS011;51963;46.052;14.544;2023-07-20T03:43:27;10.15;;;6.28;;
56181;SDS011;51963;46.052;14.544;2023-07-20T03:45:53;10.23;;;5.78;;
56181;SDS011;51963;46.052;14.544;2023-07-20T03:48:23;8.57;;;5.18;;
56181;SDS011;51963;46.052;14.544;2023-07-20T03:50:50;8.05;;;4.68;;
56181;SDS011;51963;46.052;14.544;2023-07-20T03:53:17;6.50;;;4.50;;
56181;SDS011;51963;46.052;14.544;2023-07-20T03:55:47;10.35;;;4.60;;
56181;SDS011;51963;46.052;14.544;2023-07-20T03:58:19;7.13;;;4.57;;
56181;SDS011;51963;46.052;14.544;2023-07-20T04:00:47;7.22;;;4.60;;
56181;SDS011;51963;46.052;14.544;2023-07-20T04:03:19;6.63;;;4.25;;
56181;SDS011;51963;46.052;14.544;2023-07-20T04:05:50;12.48;;;7.07;;
56181;SDS011;51963;46.052;14.544;2023-07-20T04:08:16;8.82;;;5.95;;
56181;SDS011;51963;46.052;14.544;2023-07-20T04:10:45;10.30;;;6.70;;
56181;SDS011;51963;46.052;14.544;2023-07-20T04:13:13;7.88;;;5.60;;
56181;SDS011;51963;46.052;14.544;2023-07-20T04:15:42;8.32;;;5.70;;
56181;SDS011;51963;46.052;14.544;2023-07-20T04:18:07;10.80;;;6.53;;
56181;SDS011;51963;46.052;14.544;2023-07-20T04:20:33;12.80;;;8.55;;
56181;SDS011;51963;46.052;14.544;2023-07-20T04:22:59;13.55;;;9.05;;
56181;SDS011;51963;46.052;14.544;2023-07-20T04:25:25;14.63;;;9.25;;
56181;SDS011;51963;46.052;14.544;2023-07-20T04:27:54;18.85;;;9.43;;
56181;SDS011;51963;46.052;14.544;2023-07-20T04:30:20;14.95;;;9.43;;
56181;SDS011;51963;46.052;14.544;2023-07-20T04:32:48;13.75;;;8.27;;
56181;SDS011;51963;46.052;14.544;2023-07-20T04:36:02;12.10;;;7.75;;
56181;SDS011;51963;46.052;14.544;2023-07-20T04:38:26;15.10;;;9.10;;
56181;SDS011;51963;46.052;14.544;2023-07-20T04:41:09;12.43;;;8.40;;
56181;SDS011;51963;46.052;14.544;2023-07-20T04:43:41;13.70;;;8.30;;
56181;SDS011;51963;46.052;14.544;2023-07-20T04:46:16;10.63;;;7.15;;
56181;SDS011;51963;46.052;14.544;2023-07-20T04:48:44;10.73;;;7.05;;
56181;SDS011;51963;46.052;14.544;2023-07-20T04:51:10;11.40;;;7.05;;
56181;SDS011;51963;46.052;14.544;2023-07-20T04:53:37;9.90;;;6.88;;
56181;SDS011;51963;46.052;14.544;2023-07-20T04:56:08;14.93;;;8.35;;
56181;SDS011;51963;46.052;14.544;2023-07-20T04:58:36;10.35;;;7.15;;
56181;SDS011;51963;46.052;14.544;2023-07-20T05:01:01;13.20;;;8.00;;
56181;SDS011;51963;46.052;14.544;2023-07-20T05:03:27;12.35;;;7.20;;
56181;SDS011;51963;46.052;14.544;2023-07-20T05:05:54;13.20;;;7.28;;
56181;SDS011;51963;46.052;14.544;2023-07-20T05:08:20;10.02;;;6.82;;
56181;SDS011;51963;46.052;14.544;2023-07-20T05:10:47;9.10;;;6.43;;
56181;SDS011;51963;46.052;14.544;2023-07-20T05:13:16;12.90;;;7.00;;
56181;SDS011;51963;46.052;14.544;2023-07-20T05:15:42;17.35;;;8.90;;
56181;SDS011;51963;46.052;14.544;2023-07-20T05:18:11;21.52;;;9.90;;
56181;SDS011;51963;46.052;14.544;2023-07-20T05:20:37;12.23;;;7.80;;
56181;SDS011;51963;46.052;14.544;2023-07-20T05:23:06;15.38;;;7.80;;
56181;SDS011;51963;46.052;14.544;2023-07-20T05:25:31;12.93;;;7.47;;
56181;SDS011;51963;46.052;14.544;2023-07-20T05:28:00;15.75;;;8.02;;
56181;SDS011;51963;46.052;14.544;2023-07-20T05:30:25;8.13;;;5.40;;
56181;SDS011;51963;46.052;14.544;2023-07-20T05:32:51;7.60;;;5.32;;
56181;SDS011;51963;46.052;14.544;2023-07-20T05:35:17;12.35;;;4.60;;
56181;SDS011;51963;46.052;14.544;2023-07-20T05:37:44;6.05;;;4.88;;
56181;SDS011;51963;46.052;14.544;2023-07-20T05:40:14;8.97;;;5.37;;
56181;SDS011;51963;46.052;14.544;2023-07-20T05:42:47;10.10;;;4.72;;
56181;SDS011;51963;46.052;14.544;2023-07-20T05:45:16;7.75;;;5.15;;
56181;SDS011;51963;46.052;14.544;2023-07-20T05:47:43;8.23;;;4.95;;
56181;SDS011;51963;46.052;14.544;2023-07-20T05:50:09;13.25;;;5.20;;
56181;SDS011;51963;46.052;14.544;2023-07-20T05:52:37;7.80;;;5.18;;
56181;SDS011;51963;46.052;14.544;2023-07-20T05:55:07;8.00;;;4.60;;
56181;SDS011;51963;46.052;14.544;2023-07-20T05:57:33;7.57;;;5.00;;
56181;SDS011;51963;46.052;14.544;2023-07-20T06:00:08;8.35;;;5.10;;
56181;SDS011;51963;46.052;14.544;2023-07-20T06:02:45;11.30;;;6.03;;
56181;SDS011;51963;46.052;14.544;2023-07-20T06:05:11;7.00;;;5.70;;
56181;SDS011;51963;46.052;14.544;2023-07-20T06:07:39;10.95;;;5.63;;
56181;SDS011;51963;46.052;14.544;2023-07-20T06:10:07;9.95;;;6.45;;
56181;SDS011;51963;46.052;14.544;2023-07-20T06:12:33;13.70;;;6.68;;
56181;SDS011;51963;46.052;14.544;2023-07-20T06:15:01;9.63;;;6.25;;
56181;SDS011;51963;46.052;14.544;2023-07-20T06:17:29;11.60;;;6.28;;
56181;SDS011;51963;46.052;14.544;2023-07-20T06:20:01;8.75;;;6.30;;
56181;SDS011;51963;46.052;14.544;2023-07-20T06:22:29;9.70;;;5.80;;
56181;SDS011;51963;46.052;14.544;2023-07-20T06:25:00;14.55;;;5.78;;
56181;SDS011;51963;46.052;14.544;2023-07-20T06:27:34;12.25;;;5.65;;
56181;SDS011;51963;46.052;14.544;2023-07-20T06:30:00;8.07;;;4.95;;
56181;SDS011;51963;46.052;14.544;2023-07-20T06:32:26;9.35;;;5.07;;
56181;SDS011;51963;46.052;14.544;2023-07-20T06:35:04;8.13;;;5.22;;
56181;SDS011;51963;46.052;14.544;2023-07-20T06:37:30;8.75;;;5.32;;
56181;SDS011;51963;46.052;14.544;2023-07-20T06:39:56;10.93;;;5.80;;
56181;SDS011;51963;46.052;14.544;2023-07-20T06:42:22;10.30;;;5.63;;
56181;SDS011;51963;46.052;14.544;2023-07-20T06:44:47;14.88;;;5.93;;
56181;SDS011;51963;46.052;14.544;2023-07-20T06:47:13;8.65;;;5.38;;
56181;SDS011;51963;46.052;14.544;2023-07-20T06:49:38;9.07;;;5.78;;
56181;SDS011;51963;46.052;14.544;2023-07-20T06:52:04;9.43;;;5.50;;
56181;SDS011;51963;46.052;14.544;2023-07-20T06:54:33;9.70;;;5.60;;
56181;SDS011;51963;46.052;14.544;2023-07-20T06:56:59;10.45;;;5.65;;
56181;SDS011;51963;46.052;14.544;2023-07-20T07:15:08;7.97;;;5.25;;
56181;SDS011;51963;46.052;14.544;2023-07-20T07:20:04;12.38;;;5.85;;
56181;SDS011;51963;46.052;14.544;2023-07-20T07:22:31;8.25;;;4.80;;
56181;SDS011;51963;46.052;14.544;2023-07-20T07:24:57;7.72;;;4.65;;
56181;SDS011;51963;46.052;14.544;2023-07-20T07:27:22;8.52;;;4.95;;
56181;SDS011;51963;46.052;14.544;2023-07-20T07:29:51;9.48;;;4.82;;
56181;SDS011;51963;46.052;14.544;2023-07-20T07:32:17;9.00;;;4.60;;
56181;SDS011;51963;46.052;14.544;2023-07-20T07:34:43;9.45;;;4.80;;
56181;SDS011;51963;46.052;14.544;2023-07-20T07:37:14;11.85;;;7.88;;
56181;SDS011;51963;46.052;14.544;2023-07-20T07:39:40;7.80;;;4.18;;
56181;SDS011;51963;46.052;14.544;2023-07-20T07:42:06;8.35;;;3.80;;
56181;SDS011;51963;46.052;14.544;2023-07-20T07:44:31;6.40;;;3.95;;
56181;SDS011;51963;46.052;14.544;2023-07-20T07:46:57;9.30;;;3.88;;
56181;SDS011;51963;46.052;14.544;2023-07-20T07:49:23;4.65;;;3.08;;
56181;SDS011;51963;46.052;14.544;2023-07-20T07:51:49;7.72;;;3.90;;
56181;SDS011;51963;46.052;14.544;2023-07-20T07:54:14;7.65;;;4.45;;
56181;SDS011;51963;46.052;14.544;2023-07-20T07:56:40;6.80;;;3.88;;
56181;SDS011;51963;46.052;14.544;2023-07-20T07:59:06;9.32;;;3.97;;
56181;SDS011;51963;46.052;14.544;2023-07-20T08:01:32;6.57;;;3.83;;
56181;SDS011;51963;46.052;14.544;2023-07-20T08:03:58;6.07;;;3.83;;
56181;SDS011;51963;46.052;14.544;2023-07-20T08:06:30;7.90;;;3.70;;
56181;SDS011;51963;46.052;14.544;2023-07-20T08:08:58;3.88;;;2.90;;
56181;SDS011;51963;46.052;14.544;2023-07-20T08:11:24;6.45;;;2.45;;
56181;SDS011;51963;46.052;14.544;2023-07-20T08:13:49;4.80;;;2.67;;
56181;SDS011;51963;46.052;14.544;2023-07-20T08:16:15;3.97;;;2.55;;
56181;SDS011;51963;46.052;14.544;2023-07-20T08:18:41;4.10;;;2.20;;
56181;SDS011;51963;46.052;14.544;2023-07-20T08:21:07;3.65;;;2.50;;
56181;SDS011;51963;46.052;14.544;2023-07-20T08:23:32;5.90;;;2.70;;
56181;SDS011;51963;46.052;14.544;2023-07-20T08:25:58;5.35;;;2.53;;
56181;SDS011;51963;46.052;14.544;2023-07-20T08:28:27;6.22;;;2.70;;
56181;SDS011;51963;46.052;14.544;2023-07-20T08:30:54;3.78;;;2.72;;
56181;SDS011;51963;46.052;14.544;2023-07-20T08:33:20;6.50;;;2.60;;
56181;SDS011;51963;46.052;14.544;2023-07-20T08:35:46;7.10;;;2.20;;
56181;SDS011;51963;46.052;14.544;2023-07-20T08:38:12;5.47;;;2.60;;
56181;SDS011;51963;46.052;14.544;2023-07-20T08:40:40;5.40;;;2.88;;
56181;SDS011;51963;46.052;14.544;2023-07-20T08:45:33;3.40;;;2.17;;
56181;SDS011;51963;46.052;14.544;2023-07-20T08:48:03;5.38;;;2.40;;
56181;SDS011;51963;46.052;14.544;2023-07-20T08:50:31;3.80;;;2.17;;
56181;SDS011;51963;46.052;14.544;2023-07-20T08:52:58;3.42;;;2.20;;
56181;SDS011;51963;46.052;14.544;2023-07-20T08:55:30;2.92;;;2.05;;
56181;SDS011;51963;46.052;14.544;2023-07-20T08:57:57;6.88;;;2.25;;
56181;SDS011;51963;46.052;14.544;2023-07-20T09:02:58;8.82;;;3.50;;
56181;SDS011;51963;46.052;14.544;2023-07-20T09:05:26;4.35;;;2.80;;
56181;SDS011;51963;46.052;14.544;2023-07-20T09:07:52;5.50;;;3.40;;
56181;SDS011;51963;46.052;14.544;2023-07-20T09:10:20;6.35;;;2.97;;
56181;SDS011;51963;46.052;14.544;2023-07-20T09:12:47;5.35;;;2.40;;
56181;SDS011;51963;46.052;14.544;2023-07-20T09:15:13;5.93;;;2.70;;
56181;SDS011;51963;46.052;14.544;2023-07-20T09:17:38;4.93;;;2.13;;
56181;SDS011;51963;46.052;14.544;2023-07-20T09:20:05;4.75;;;1.98;;
56181;SDS011;51963;46.052;14.544;2023-07-20T09:22:35;2.38;;;1.73;;
56181;SDS011;51963;46.052;14.544;2023-07-20T09:25:06;3.00;;;1.83;;
56181;SDS011;51963;46.052;14.544;2023-07-20T09:27:39;4.72;;;2.13;;
56181;SDS011;51963;46.052;14.544;2023-07-20T09:30:10;7.68;;;2.10;;
56181;SDS011;51963;46.052;14.544;2023-07-20T09:32:39;4.75;;;2.22;;
56181;SDS011;51963;46.052;14.544;2023-07-20T09:35:13;2.80;;;2.15;;
56181;SDS011;51963;46.052;14.544;2023-07-20T09:37:50;5.10;;;2.05;;
56181;SDS011;51963;46.052;14.544;2023-07-20T09:40:18;5.20;;;2.05;;
56181;SDS011;51963;46.052;14.544;2023-07-20T09:42:44;7.53;;;2.40;;
56181;SDS011;51963;46.052;14.544;2023-07-20T09:45:10;4.68;;;2.20;;
56181;SDS011;51963;46.052;14.544;2023-07-20T09:47:37;4.57;;;1.95;;
56181;SDS011;51963;46.052;14.544;2023-07-20T09:50:03;3.25;;;1.90;;
56181;SDS011;51963;46.052;14.544;2023-07-20T09:52:30;2.30;;;1.60;;
56181;SDS011;51963;46.052;14.544;2023-07-20T09:54:59;5.20;;;2.58;;
56181;SDS011;51963;46.052;14.544;2023-07-20T09:57:26;4.43;;;2.30;;
56181;SDS011;51963;46.052;14.544;2023-07-20T09:59:54;5.05;;;2.42;;
56181;SDS011;51963;46.052;14.544;2023-07-20T10:02:21;5.72;;;2.38;;
56181;SDS011;51963;46.052;14.544;2023-07-20T10:04:51;3.40;;;2.13;;
56181;SDS011;51963;46.052;14.544;2023-07-20T10:07:19;5.50;;;2.28;;
56181;SDS011;51963;46.052;14.544;2023-07-20T10:09:48;3.20;;;1.70;;
56181;SDS011;51963;46.052;14.544;2023-07-20T10:12:19;2.83;;;2.03;;
56181;SDS011;51963;46.052;14.544;2023-07-20T10:14:51;2.65;;;1.90;;
56181;SDS011;51963;46.052;14.544;2023-07-20T10:17:31;3.83;;;2.10;;
56181;SDS011;51963;46.052;14.544;2023-07-20T10:19:57;3.80;;;1.85;;
56181;SDS011;51963;46.052;14.544;2023-07-20T10:22:29;3.20;;;1.88;;
56181;SDS011;51963;46.052;14.544;2023-07-20T10:25:02;3.83;;;1.67;;
56181;SDS011;51963;46.052;14.544;2023-07-20T10:27:35;2.25;;;1.65;;
56181;SDS011;51963;46.052;14.544;2023-07-20T10:30:00;4.25;;;2.10;;
56181;SDS011;51963;46.052;14.544;2023-07-20T10:32:30;3.92;;;1.73;;
56181;SDS011;51963;46.052;14.544;2023-07-20T10:34:56;6.25;;;2.22;;
56181;SDS011;51963;46.052;14.544;2023-07-20T10:38:07;2.50;;;1.75;;
56181;SDS011;51963;46.052;14.544;2023-07-20T10:43:08;2.15;;;1.90;;
56181;SDS011;51963;46.052;14.544;2023-07-20T10:48:22;2.70;;;1.90;;
56181;SDS011;51963;46.052;14.544;2023-07-20T10:51:09;3.13;;;1.70;;
56181;SDS011;51963;46.052;14.544;2023-07-20T10:53:35;3.10;;;1.90;;
56181;SDS011;51963;46.052;14.544;2023-07-20T10:56:08;4.53;;;2.03;;
56181;SDS011;51963;46.052;14.544;2023-07-20T10:58:39;2.42;;;1.50;;
56181;SDS011;51963;46.052;14.544;2023-07-20T11:01:13;4.38;;;1.90;;
56181;SDS011;51963;46.052;14.544;2023-07-20T11:03:49;3.20;;;1.80;;
56181;SDS011;51963;46.052;14.544;2023-07-20T11:08:56;2.25;;;1.60;;
56181;SDS011;51963;46.052;14.544;2023-07-20T11:11:24;2.90;;;1.70;;
56181;SDS011;51963;46.052;14.544;2023-07-20T11:13:58;5.47;;;1.95;;
56181;SDS011;51963;46.052;14.544;2023-07-20T11:16:33;4.63;;;1.90;;
56181;SDS011;51963;46.052;14.544;2023-07-20T11:19:05;2.78;;;1.65;;
56181;SDS011;51963;46.052;14.544;2023-07-20T11:21:54;3.10;;;1.77;;
56181;SDS011;51963;46.052;14.544;2023-07-20T11:24:24;3.00;;;1.75;;
56181;SDS011;51963;46.052;14.544;2023-07-20T11:26:50;2.65;;;1.65;;
56181;SDS011;51963;46.052;14.544;2023-07-20T11:29:20;2.35;;;1.70;;
56181;SDS011;51963;46.052;14.544;2023-07-20T11:31:49;4.05;;;1.85;;
56181;SDS011;51963;46.052;14.544;2023-07-20T11:34:16;3.25;;;1.70;;
56181;SDS011;51963;46.052;14.544;2023-07-20T11:36:46;4.60;;;2.03;;
56181;SDS011;51963;46.052;14.544;2023-07-20T11:39:14;2.25;;;1.88;;
56181;SDS011;51963;46.052;14.544;2023-07-20T11:41:46;2.65;;;2.15;;
56181;SDS011;51963;46.052;14.544;2023-07-20T11:44:13;3.35;;;1.70;;
56181;SDS011;51963;46.052;14.544;2023-07-20T11:46:40;3.13;;;1.80;;
56181;SDS011;51963;46.052;14.544;2023-07-20T11:49:07;4.13;;;1.80;;
56181;SDS011;51963;46.052;14.544;2023-07-20T11:51:34;3.03;;;1.80;;
56181;SDS011;51963;46.052;14.544;2023-07-20T11:54:00;3.72;;;1.90;;
56181;SDS011;51963;46.052;14.544;2023-07-20T11:56:27;2.95;;;2.03;;
56181;SDS011;51963;46.052;14.544;2023-07-20T11:58:54;2.30;;;1.90;;
56181;SDS011;51963;46.052;14.544;2023-07-20T12:01:26;3.30;;;2.20;;
56181;SDS011;51963;46.052;14.544;2023-07-20T12:03:55;3.42;;;2.10;;
56181;SDS011;51963;46.052;14.544;2023-07-20T12:06:26;4.68;;;2.10;;
56181;SDS011;51963;46.052;14.544;2023-07-20T12:08:57;5.53;;;2.45;;
56181;SDS011;51963;46.052;14.544;2023-07-20T12:11:34;4.40;;;2.30;;
56181;SDS011;51963;46.052;14.544;2023-07-20T12:14:00;5.20;;;2.30;;
56181;SDS011;51963;46.052;14.544;2023-07-20T12:16:27;2.90;;;2.10;;
56181;SDS011;51963;46.052;14.544;2023-07-20T12:19:00;3.80;;;2.40;;
56181;SDS011;51963;46.052;14.544;2023-07-20T12:21:30;2.42;;;1.90;;
56181;SDS011;51963;46.052;14.544;2023-07-20T12:23:59;3.20;;;2.08;;
56181;SDS011;51963;46.052;14.544;2023-07-20T12:26:25;4.30;;;2.10;;
56181;SDS011;51963;46.052;14.544;2023-07-20T12:28:54;2.83;;;1.88;;
56181;SDS011;51963;46.052;14.544;2023-07-20T12:31:20;4.10;;;1.97;;
56181;SDS011;51963;46.052;14.544;2023-07-20T12:33:48;4.32;;;2.20;;
56181;SDS011;51963;46.052;14.544;2023-07-20T12:36:14;3.17;;;2.25;;
56181;SDS011;51963;46.052;14.544;2023-07-20T12:38:40;3.00;;;1.80;;
56181;SDS011;51963;46.052;14.544;2023-07-20T12:41:07;2.67;;;2.33;;
56181;SDS011;51963;46.052;14.544;2023-07-20T12:43:33;3.08;;;1.92;;
56181;SDS011;51963;46.052;14.544;2023-07-20T12:45:59;3.50;;;1.90;;
56181;SDS011;51963;46.052;14.544;2023-07-20T12:48:25;3.93;;;2.10;;
56181;SDS011;51963;46.052;14.544;2023-07-20T12:50:53;2.63;;;1.70;;
56181;SDS011;51963;46.052;14.544;2023-07-20T12:53:19;2.90;;;2.00;;
56181;SDS011;51963;46.052;14.544;2023-07-20T12:55:45;3.22;;;2.08;;
56181;SDS011;51963;46.052;14.544;2023-07-20T12:58:12;4.60;;;2.17;;
56181;SDS011;51963;46.052;14.544;2023-07-20T13:00:41;3.53;;;1.95;;
56181;SDS011;51963;46.052;14.544;2023-07-20T13:03:07;2.37;;;2.17;;
56181;SDS011;51963;46.052;14.544;2023-07-20T13:08:00;2.30;;;2.10;;
56181;SDS011;51963;46.052;14.544;2023-07-20T13:10:26;4.53;;;2.03;;
56181;SDS011;51963;46.052;14.544;2023-07-20T13:12:52;3.63;;;2.13;;
56181;SDS011;51963;46.052;14.544;2023-07-20T13:15:18;2.60;;;2.10;;
56181;SDS011;51963;46.052;14.544;2023-07-20T13:17:44;3.97;;;2.30;;
56181;SDS011;51963;46.052;14.544;2023-07-20T13:20:24;3.20;;;2.20;;
56181;SDS011;51963;46.052;14.544;2023-07-20T13:22:51;3.70;;;2.00;;
56181;SDS011;51963;46.052;14.544;2023-07-20T13:25:17;2.90;;;2.30;;
56181;SDS011;51963;46.052;14.544;2023-07-20T13:27:42;3.93;;;2.20;;
56181;SDS011;51963;46.052;14.544;2023-07-20T13:30:08;3.13;;;2.50;;
56181;SDS011;51963;46.052;14.544;2023-07-20T13:32:39;3.17;;;2.40;;
56181;SDS011;51963;46.052;14.544;2023-07-20T13:35:05;3.10;;;2.40;;
56181;SDS011;51963;46.052;14.544;2023-07-20T13:37:31;2.65;;;2.20;;
56181;SDS011;51963;46.052;14.544;2023-07-20T13:39:57;3.50;;;2.20;;
56181;SDS011;51963;46.052;14.544;2023-07-20T13:42:23;3.30;;;2.40;;
56181;SDS011;51963;46.052;14.544;2023-07-20T13:44:48;4.13;;;2.43;;
56181;SDS011;51963;46.052;14.544;2023-07-20T13:47:17;3.67;;;2.22;;
56181;SDS011;51963;46.052;14.544;2023-07-20T13:49:43;2.90;;;2.60;;
56181;SDS011;51963;46.052;14.544;2023-07-20T13:52:09;2.90;;;2.33;;
56181;SDS011;51963;46.052;14.544;2023-07-20T13:54:35;2.83;;;2.23;;
56181;SDS011;51963;46.052;14.544;2023-07-20T13:57:01;4.75;;;2.15;;
56181;SDS011;51963;46.052;14.544;2023-07-20T13:59:30;4.20;;;2.30;;
56181;SDS011;51963;46.052;14.544;2023-07-20T14:01:56;3.90;;;2.58;;
56181;SDS011;51963;46.052;14.544;2023-07-20T14:04:22;3.57;;;2.20;;
56181;SDS011;51963;46.052;14.544;2023-07-20T14:06:48;5.03;;;2.47;;
56181;SDS011;51963;46.052;14.544;2023-07-20T14:09:13;3.03;;;2.23;;
56181;SDS011;51963;46.052;14.544;2023-07-20T14:11:39;2.63;;;2.33;;
56181;SDS011;51963;46.052;14.544;2023-07-20T14:14:05;4.90;;;2.47;;
56181;SDS011;51963;46.052;14.544;2023-07-20T14:16:30;2.80;;;2.03;;
56181;SDS011;51963;46.052;14.544;2023-07-20T14:19:00;4.22;;;2.40;;
56181;SDS011;51963;46.052;14.544;2023-07-20T14:21:26;3.20;;;2.33;;
56181;SDS011;51963;46.052;14.544;2023-07-20T14:23:52;2.58;;;2.03;;
56181;SDS011;51963;46.052;14.544;2023-07-20T14:26:18;2.20;;;2.03;;
56181;SDS011;51963;46.052;14.544;2023-07-20T14:28:44;3.33;;;2.40;;
56181;SDS011;51963;46.052;14.544;2023-07-20T14:31:10;4.27;;;2.20;;
56181;SDS011;51963;46.052;14.544;2023-07-20T14:33:36;2.55;;;2.03;;
56181;SDS011;51963;46.052;14.544;2023-07-20T14:36:02;4.60;;;2.33;;
56181;SDS011;51963;46.052;14.544;2023-07-20T14:38:28;3.10;;;2.38;;
56181;SDS011;51963;46.052;14.544;2023-07-20T14:40:56;2.63;;;2.08;;
56181;SDS011;51963;46.052;14.544;2023-07-20T14:43:22;4.50;;;2.20;;
56181;SDS011;51963;46.052;14.544;2023-07-20T14:45:48;2.40;;;1.85;;
56181;SDS011;51963;46.052;14.544;2023-07-20T14:48:14;6.23;;;2.37;;
56181;SDS011;51963;46.052;14.544;2023-07-20T14:50:39;3.90;;;2.07;;
56181;SDS011;51963;46.052;14.544;2023-07-20T14:53:05;5.40;;;2.07;;
56181;SDS011;51963;46.052;14.544;2023-07-20T14:55:31;3.20;;;2.05;;
56181;SDS011;51963;46.052;14.544;2023-07-20T14:57:57;3.10;;;2.00;;
56181;SDS011;51963;46.052;14.544;2023-07-20T15:00:49;4.85;;;2.00;;
56181;SDS011;51963;46.052;14.544;2023-07-20T15:03:18;4.35;;;2.10;;
56181;SDS011;51963;46.052;14.544;2023-07-20T15:05:46;5.90;;;2.42;;
56181;SDS011;51963;46.052;14.544;2023-07-20T15:08:17;3.08;;;2.25;;
56181;SDS011;51963;46.052;14.544;2023-07-20T15:10:52;2.75;;;2.25;;
56181;SDS011;51963;46.052;14.544;2023-07-20T15:13:17;2.30;;;2.03;;
56181;SDS011;51963;46.052;14.544;2023-07-20T15:15:43;3.72;;;2.13;;
56181;SDS011;51963;46.052;14.544;2023-07-20T15:18:09;3.28;;;2.10;;
56181;SDS011;51963;46.052;14.544;2023-07-20T15:20:35;2.83;;;2.03;;
56181;SDS011;51963;46.052;14.544;2023-07-20T15:23:03;4.65;;;2.00;;
56181;SDS011;51963;46.052;14.544;2023-07-20T15:25:31;3.78;;;2.03;;
56181;SDS011;51963;46.052;14.544;2023-07-20T15:27:57;4.22;;;2.17;;
56181;SDS011;51963;46.052;14.544;2023-07-20T15:30:22;2.60;;;1.70;;
56181;SDS011;51963;46.052;14.544;2023-07-20T15:32:48;4.40;;;2.33;;
56181;SDS011;51963;46.052;14.544;2023-07-20T15:35:14;3.95;;;2.30;;